NY/NJ Local METAR Reports

 

KNYC - NYC/Central Park, NY, USA
Distance from Hoboken: NE 4mi, 7km
Updated: 11/17/2017 11:51am
Clear
Clear
 
Temperature: 45°F , 7°C
Dew Point: 23°F , -5°C
Humidity: 42%
Barometer: 30.07 inHg , 1018.3 hPa
Clouds: Clear
Visibility: 10 miles , 16 km
2017/11/17 16:51 KNYC 171651Z AUTO 10SM CLR 07/M05 A3007 RMK AO2 SLP176 T00721050 $
KEWR - Newark, NJ, USA
Distance from Hoboken: WSW 8mi, 13km
Updated: 11/17/2017 11:51am
Few Clouds
Few Clouds
 Wind from W
Wind: W 14 mph , 22 km/h
Temperature: 48°F , 9°C
Wind Chill: 42°F , 6°C
Dew Point: 21°F , -6°C
Humidity: 34%
Barometer: 30.07 inHg , 1018.3 hPa
Clouds: Few Clouds
Visibility: 10 miles , 16 km
Cloud details: Few Clouds 25000 ft
2017/11/17 16:51 KEWR 171651Z 28012KT 10SM FEW250 09/M06 A3007 RMK AO2 SLP181 T00891056
 
KLGA - NYC/La Guardia, NY, USA
Distance from Hoboken: ENE 8mi, 13km
Updated: 11/17/2017 11:51am
Few Clouds
Few Clouds
 Wind from NW
Wind: NW 21 mph , 33 km/h, Gust: 28 mph , 44 km/h
Temperature: 45°F , 7°C
Wind Chill: 37°F , 3°C
Dew Point: 25°F , -4°C
Humidity: 46%
Barometer: 30.05 inHg , 1017.6 hPa
Clouds: Few Clouds
Visibility: 10 miles , 16 km
Cloud details: Few Clouds 4500 ft
2017/11/17 16:51 KLGA 171651Z 32018G24KT 10SM FEW045 07/M04 A3005 RMK AO2 SLP174 T00721039
KTEB - Teterboro, NJ, USA
Distance from Hoboken: N 9mi, 14km
Updated: 11/17/2017 11:51am
Clear
Clear
 Wind from NW
Wind: NW 18 mph , 30 km/h, Gust: 24 mph , 39 km/h
Temperature: 46°F , 8°C
Wind Chill: 39°F , 4°C
Dew Point: 25°F , -4°C
Humidity: 43%
Barometer: 30.05 inHg , 1017.6 hPa
Clouds: Clear
Visibility: 10 miles , 16 km
2017/11/17 16:51 KTEB 171651Z 32016G21KT 10SM CLR 08/M04 A3005 RMK AO2 SLP176 T00781044
 
KJFK - NYC/Jfk Arpt, NY, USA
Distance from Hoboken: ESE 16mi, 25km
Updated: 11/17/2017 11:51am
Few Clouds
Few Clouds
 Wind from WNW
Wind: WNW 21 mph , 33 km/h, Gust: 29 mph , 46 km/h
Temperature: 46°F , 8°C
Wind Chill: 38°F , 3°C
Dew Point: 25°F , -4°C
Humidity: 43%
Barometer: 30.06 inHg , 1017.9 hPa
Clouds: Few Clouds
Visibility: 10 miles , 16 km
Cloud details: Few Clouds 5000 ft
Few Clouds 25000 ft
2017/11/17 16:51 KJFK 171651Z 29018G25KT 10SM FEW050 FEW250 08/M04 A3006 RMK AO2 PK WND 30027/1633 SLP179 T00781044
KCDW - Caldwell, NJ, USA
Distance from Hoboken: NW 16mi, 26km
Updated: 11/17/2017 11:53am
Clear
Clear
 Wind from NW
Wind: NW 15 mph , 24 km/h, Gust: 26 mph , 43 km/h
Temperature: 45°F , 7°C
Wind Chill: 38°F , 3°C
Dew Point: 21°F , -6°C
Humidity: 39%
Barometer: 30.07 inHg , 1018.3 hPa
Clouds: Clear
Visibility: 10 miles , 16 km
2017/11/17 16:53 KCDW 171653Z 31013G23KT 10SM CLR 07/M06 A3007 RMK AO2 SLP188 T00671056
 
KMMU - Morristown Muni, NJ, USA
Distance from Hoboken: W 20mi, 33km
Updated: 11/17/2017 11:45am
Clear
Clear
 Wind from NNW
Wind: NNW 12 mph , 19 km/h, Gust: 21 mph , 33 km/h
Temperature: 45°F , 7°C
Wind Chill: 39°F , 4°C
Dew Point: 21°F , -6°C
Humidity: 39%
Barometer: 30.08 inHg , 1018.6 hPa
Clouds: Clear
Visibility: 10 miles , 16 km
2017/11/17 16:45 KMMU 171645Z 33010G18KT 10SM SKC 07/M06 A3008
KHPN - White Plains, NY, USA
Distance from Hoboken: NE 28mi, 46km
Updated: 11/17/2017 11:56am
Clear
Clear
 Wind from NW
Wind: NW 17 mph , 28 km/h, Gust: 24 mph , 39 km/h
Temperature: 45°F , 7°C
Wind Chill: 38°F , 3°C
Dew Point: 25°F , -4°C
Humidity: 46%
Barometer: 30.00 inHg , 1015.9 hPa
Clouds: Clear
Visibility: 10 miles , 16 km
2017/11/17 16:56 KHPN 171656Z 31015G21KT 10SM CLR 07/M04 A3000 RMK AO2 SLP165 T00671044
 
KFRG - Farmingdale, NY, USA
Distance from Hoboken: E 32mi, 52km
Updated: 11/17/2017 11:53am
Clear
Clear
 Wind from WNW
Wind: WNW 12 mph , 19 km/h, Gust: 23 mph , 37 km/h
Temperature: 46°F , 8°C
Wind Chill: 40°F , 4°C
Dew Point: 25°F , -4°C
Humidity: 43%
Barometer: 30.03 inHg , 1016.9 hPa
Clouds: Clear
Visibility: 10 miles , 16 km
2017/11/17 16:53 KFRG 171653Z 30010G20KT 10SM CLR 08/M04 A3003 RMK AO2 SLP169 T00781039
KSMQ - Somerville, NJ, USA
Distance from Hoboken: WSW 34mi, 55km
Updated: 11/17/2017 11:53am
Clear
Clear
 Wind from NW
Wind: NW 10 mph , 17 km/h, Gust: 26 mph , 43 km/h
Temperature: 46°F , 8°C
Wind Chill: 41°F , 5°C
Dew Point: 21°F , -6°C
Humidity: 37%
Barometer: 30.09 inHg , 1019 hPa
Clouds: Clear
Visibility: 10 miles , 16 km
2017/11/17 16:53 KSMQ 171653Z AUTO 32009G23KT 10SM CLR 08/M06 A3009 RMK AO2 SLP189 T00781061
 
KBLM - Belmar/Farmdale, NJ, USA
Distance from Hoboken: S 40mi, 64km
Updated: 11/17/2017 11:56am
Clear
Clear
 Wind from W
Wind: W 17 mph , 28 km/h, Gust: 24 mph , 39 km/h
Temperature: 46°F , 8°C
Wind Chill: 39°F , 4°C
Dew Point: 23°F , -5°C
Humidity: 40%
Barometer: 30.08 inHg , 1018.6 hPa
Clouds: Clear
Visibility: 10 miles , 16 km
2017/11/17 16:56 KBLM 171656Z AUTO 28015G21KT 10SM CLR 08/M05 A3008 RMK AO2 SLP190 T00781050
K12N - Andover, NJ, USA
Distance from Hoboken: WNW 41mi, 67km
Updated: 11/17/2017 11:54am

 Wind from NNW
Wind: NNW 8 mph , 13 km/h, Gust: 20 mph , 31 km/h
Temperature: 43°F , 6°C
Wind Chill: 38°F , 3°C
Dew Point: 19°F , -7°C
Humidity: 39%
Barometer: 30.08 inHg , 1018.6 hPa
2017/11/17 16:54 K12N 171654Z AUTO 34007G17KT 06/M07 A3008 RMK AO1 SLP192 T00611067
 
KFWN - Sussex, NJ, USA
Distance from Hoboken: NW 45mi, 72km
Updated: 11/17/2017 11:53am
Light rain, Clear
Light rain, Clear
 Wind from WNW
Wind: WNW 10 mph , 17 km/h, Gust: 18 mph , 30 km/h
Temperature: 43°F , 6°C
Wind Chill: 37°F , 3°C
Dew Point: 23°F , -5°C
Humidity: 46%
Barometer: 30.08 inHg , 1018.6 hPa
Summary: Light rain
Clouds: Clear
Visibility: 10 miles , 16 km
2017/11/17 16:53 KFWN 171653Z AUTO 29009G16KT 260V330 10SM -RA CLR 06/M05 A3008 RMK AO2 RAB50 SLP188 P0000 T00561050
KISP - Islip, NY, USA
Distance from Hoboken: E 49mi, 79km
Updated: 11/17/2017 11:56am
Few Clouds
Few Clouds
 Wind from NW
Wind: NW 14 mph , 22 km/h, Gust: 25 mph , 41 km/h
Temperature: 48°F , 9°C
Wind Chill: 42°F , 6°C
Dew Point: 27°F , -3°C
Humidity: 43%
Barometer: 30.00 inHg , 1015.9 hPa
Clouds: Few Clouds
Visibility: 10 miles , 16 km
Cloud details: Few Clouds 5000 ft
2017/11/17 16:56 KISP 171656Z 31012G22KT 10SM FEW050 09/M03 A3000 RMK AO2 SLP160 T00891028